createdAt,value
2019-05-09T00:00:38.226Z,0.90
2019-05-09T00:01:43.904Z,1.10
2019-05-09T00:02:48.530Z,0.80
2019-05-09T00:03:54.358Z,0.85
2019-05-09T00:04:58.973Z,1.10
2019-05-09T00:06:04.594Z,0.93
2019-05-09T00:07:09.145Z,0.75
2019-05-09T00:08:14.038Z,0.78
2019-05-09T00:09:18.654Z,0.70
2019-05-09T00:10:37.728Z,0.72
2019-05-09T00:11:29.218Z,1.00
2019-05-09T00:12:33.703Z,0.72
2019-05-09T00:13:38.110Z,0.95
2019-05-09T00:14:43.327Z,1.00
2019-05-09T00:15:48.018Z,1.00
2019-05-09T00:16:53.127Z,1.15
2019-05-09T00:17:57.720Z,0.75
2019-05-09T00:19:03.245Z,0.90
2019-05-09T00:20:16.881Z,0.80
2019-05-09T00:21:25.958Z,0.62
2019-05-09T00:22:30.457Z,0.88
2019-05-09T00:23:35.784Z,0.95
2019-05-09T00:24:40.388Z,0.78
2019-05-09T00:25:44.846Z,0.80
2019-05-09T00:26:49.314Z,1.00
2019-05-09T00:27:53.783Z,1.00
2019-05-09T00:29:03.791Z,0.90
2019-05-09T00:30:08.653Z,0.80
2019-05-09T00:31:23.789Z,0.80
2019-05-09T00:32:45.880Z,0.68
2019-05-09T00:33:55.060Z,0.75
2019-05-09T00:35:33.886Z,0.90
2019-05-09T00:36:38.530Z,0.70
2019-05-09T00:38:17.033Z,0.93
2019-05-09T00:39:23.593Z,0.80
2019-05-09T00:40:27.702Z,0.80
2019-05-09T00:41:33.011Z,0.80
2019-05-09T00:42:37.652Z,0.85
2019-05-09T00:43:45.013Z,1.10
2019-05-09T00:44:53.112Z,0.72
2019-05-09T00:46:15.968Z,1.00
2019-05-09T00:47:25.002Z,0.90
2019-05-09T00:48:38.367Z,0.60
2019-05-09T00:49:43.477Z,0.90
2019-05-09T00:50:48.110Z,0.80
2019-05-09T00:51:54.082Z,0.70
2019-05-09T00:52:58.692Z,0.62
2019-05-09T00:54:04.158Z,0.90
2019-05-09T00:55:08.982Z,1.10
2019-05-09T00:56:13.607Z,0.90
2019-05-09T00:57:36.416Z,1.00
2019-05-09T00:58:40.911Z,0.78
2019-05-09T00:59:45.358Z,0.88
2019-05-09T01:00:49.782Z,0.62
2019-05-09T01:01:54.465Z,0.90
2019-05-09T01:02:58.983Z,0.80
2019-05-09T01:04:04.279Z,0.90
2019-05-09T01:05:09.491Z,0.90
2019-05-09T01:06:13.921Z,0.88
2019-05-09T01:07:18.365Z,0.72
2019-05-09T01:08:24.151Z,1.10
2019-05-09T01:09:28.791Z,0.80
2019-05-09T01:10:34.223Z,0.75
2019-05-09T01:11:38.826Z,0.82
2019-05-09T01:12:43.571Z,0.70
2019-05-09T01:13:48.036Z,0.75
2019-05-09T01:14:53.897Z,0.90
2019-05-09T01:15:58.499Z,0.70
2019-05-09T01:17:04.197Z,0.98
2019-05-09T01:18:08.924Z,0.70
2019-05-09T01:19:14.114Z,0.90
2019-05-09T01:20:18.940Z,0.70
2019-05-09T01:21:24.126Z,0.80
2019-05-09T01:22:28.832Z,0.70
2019-05-09T01:23:34.348Z,0.90
2019-05-09T01:24:39.265Z,0.80
2019-05-09T01:25:44.040Z,0.75
2019-05-09T01:26:49.433Z,0.80
2019-05-09T01:27:54.093Z,0.75
2019-05-09T01:28:58.609Z,0.75
2019-05-09T01:30:04.560Z,0.70
2019-05-09T01:31:09.366Z,0.82
2019-05-09T01:32:23.494Z,0.60
2019-05-09T01:34:03.972Z,1.00
2019-05-09T01:35:07.876Z,0.90
2019-05-09T01:36:14.254Z,0.80
2019-05-09T01:37:18.483Z,0.70
2019-05-09T01:38:23.328Z,0.80
2019-05-09T01:39:27.762Z,0.80
2019-05-09T01:40:33.235Z,0.60
2019-05-09T01:41:37.703Z,0.70
2019-05-09T01:42:43.260Z,0.78
2019-05-09T01:43:47.729Z,0.70
2019-05-09T01:44:53.334Z,0.88
2019-05-09T01:45:57.789Z,0.93
2019-05-09T01:47:03.817Z,0.98
2019-05-09T01:48:08.628Z,0.88
2019-05-09T01:49:13.868Z,0.80
2019-05-09T01:50:18.436Z,0.80
2019-05-09T01:51:23.448Z,0.80
2019-05-09T01:52:28.180Z,0.80
2019-05-09T01:53:35.768Z,1.00
2019-05-09T01:54:43.568Z,0.82
2019-05-09T01:56:00.519Z,0.75
2019-05-09T01:57:05.000Z,0.80
2019-05-09T01:58:09.457Z,0.72
2019-05-09T01:59:14.050Z,1.20
2019-05-09T02:00:18.522Z,0.60
2019-05-09T02:01:24.153Z,0.80
2019-05-09T02:02:28.867Z,0.90
2019-05-09T02:03:33.712Z,0.72
2019-05-09T02:04:38.400Z,0.80
2019-05-09T02:05:43.492Z,0.85
2019-05-09T02:06:48.167Z,0.93
2019-05-09T02:07:54.240Z,0.80
2019-05-09T02:08:58.825Z,0.80
2019-05-09T02:10:03.580Z,1.20
2019-05-09T02:11:08.072Z,0.70
2019-05-09T02:12:14.169Z,0.82
2019-05-09T02:13:18.928Z,0.98
2019-05-09T02:14:39.028Z,0.75
2019-05-09T02:16:00.777Z,0.80
2019-05-09T02:17:15.419Z,0.60
2019-05-09T02:18:33.283Z,0.80
2019-05-09T02:19:39.725Z,0.80
2019-05-09T02:20:44.210Z,0.80
2019-05-09T02:21:48.796Z,0.70
2019-05-09T02:22:54.305Z,0.88
2019-05-09T02:23:58.856Z,0.90
2019-05-09T02:25:04.378Z,0.90
2019-05-09T02:26:08.912Z,0.80
2019-05-09T02:27:13.509Z,0.80
2019-05-09T02:28:18.881Z,1.10
2019-05-09T02:29:23.471Z,0.85
2019-05-09T02:30:27.956Z,0.95
2019-05-09T02:31:35.412Z,0.95
2019-05-09T02:32:38.740Z,0.93
2019-05-09T02:33:45.615Z,0.80
2019-05-09T02:34:49.379Z,0.80
2019-05-09T02:36:00.793Z,0.88
2019-05-09T02:37:00.193Z,0.82
2019-05-09T02:38:04.670Z,0.72
2019-05-09T02:39:09.347Z,0.70
2019-05-09T02:40:14.012Z,0.95
2019-05-09T02:41:19.798Z,0.85
2019-05-09T02:42:24.560Z,0.85
2019-05-09T02:43:29.330Z,1.10
2019-05-09T02:44:33.966Z,1.05
2019-05-09T02:45:49.304Z,1.30
2019-05-09T02:47:10.075Z,1.12
2019-05-09T02:48:14.571Z,1.32
2019-05-09T02:49:19.354Z,1.20
2019-05-09T02:50:23.918Z,1.00
2019-05-09T02:51:29.235Z,1.12
2019-05-09T02:52:33.914Z,0.90
2019-05-09T02:53:39.490Z,1.50
2019-05-09T02:54:44.215Z,1.00
2019-05-09T02:55:49.490Z,0.85
2019-05-09T02:56:54.167Z,1.27
2019-05-09T02:57:59.385Z,0.90
2019-05-09T02:59:19.082Z,1.00
2019-05-09T03:00:31.046Z,1.00
2019-05-09T03:01:41.810Z,1.20
2019-05-09T03:03:12.320Z,1.00
2019-05-09T03:04:18.895Z,1.00
2019-05-09T03:05:22.891Z,1.10
2019-05-09T03:06:28.400Z,1.00
2019-05-09T03:07:51.638Z,0.90
2019-05-09T03:08:59.114Z,1.05
2019-05-09T03:10:02.224Z,0.80
2019-05-09T03:11:09.749Z,1.22
2019-05-09T03:12:26.747Z,0.88
2019-05-09T03:13:19.570Z,0.93
2019-05-09T03:14:23.979Z,0.90
2019-05-09T03:15:29.345Z,1.00
2019-05-09T03:16:34.074Z,0.95
2019-05-09T03:17:38.716Z,1.00
2019-05-09T03:18:43.202Z,0.95
2019-05-09T03:19:48.783Z,0.93
2019-05-09T03:21:08.613Z,0.90
2019-05-09T03:22:18.761Z,1.00
2019-05-09T03:23:22.582Z,0.95
2019-05-09T03:24:28.780Z,0.88
2019-05-09T03:25:33.575Z,0.80
2019-05-09T03:26:39.831Z,1.00
2019-05-09T03:27:48.419Z,1.20
2019-05-09T03:29:14.671Z,0.90
2019-05-09T03:30:23.712Z,1.40
2019-05-09T03:31:29.777Z,1.27
2019-05-09T03:32:34.567Z,1.35
2019-05-09T03:33:40.703Z,1.00
2019-05-09T03:34:47.804Z,1.00
2019-05-09T03:35:52.346Z,0.75
2019-05-09T03:36:58.088Z,0.93
2019-05-09T03:38:08.722Z,0.85
2019-05-09T03:39:13.214Z,1.37
2019-05-09T03:40:18.063Z,0.80
2019-05-09T03:41:22.655Z,0.90
2019-05-09T03:42:38.120Z,1.00
2019-05-09T03:43:33.332Z,1.10
2019-05-09T03:44:38.476Z,0.68
2019-05-09T03:45:49.745Z,1.00
2019-05-09T03:47:19.035Z,0.93
2019-05-09T03:48:29.294Z,1.00
2019-05-09T03:49:33.767Z,0.95
2019-05-09T03:50:38.372Z,0.93
2019-05-09T03:51:42.842Z,1.07
2019-05-09T03:52:47.910Z,0.90
2019-05-09T03:53:52.526Z,1.10
2019-05-09T03:54:57.909Z,0.90
2019-05-09T03:56:04.662Z,0.90
2019-05-09T03:57:23.044Z,0.82
2019-05-09T03:58:28.163Z,0.80
2019-05-09T03:59:32.827Z,0.68
2019-05-09T04:00:37.606Z,0.80
2019-05-09T04:01:42.300Z,0.70
2019-05-09T04:02:47.506Z,0.80
2019-05-09T04:03:52.588Z,0.72
2019-05-09T04:04:57.729Z,0.90
2019-05-09T04:06:03.154Z,1.00
2019-05-09T04:07:08.535Z,0.98
2019-05-09T04:08:22.314Z,0.75
2019-05-09T04:09:27.407Z,0.80
2019-05-09T04:10:32.038Z,0.90
2019-05-09T04:11:38.121Z,0.80
2019-05-09T04:12:53.852Z,0.80
2019-05-09T04:13:58.178Z,1.00
2019-05-09T04:15:02.713Z,1.00
2019-05-09T04:16:07.593Z,0.95
2019-05-09T04:17:12.983Z,0.60
2019-05-09T04:18:17.742Z,1.15
2019-05-09T04:19:22.403Z,1.00
2019-05-09T04:20:27.733Z,0.95
2019-05-09T04:21:32.378Z,0.80
2019-05-09T04:22:38.576Z,0.80
2019-05-09T04:23:43.305Z,0.80
2019-05-09T04:24:48.189Z,0.85
2019-05-09T04:26:09.805Z,1.17
2019-05-09T04:27:18.866Z,1.00
2019-05-09T04:28:23.462Z,1.05
2019-05-09T04:29:28.605Z,1.17
2019-05-09T04:30:33.295Z,0.75
2019-05-09T04:31:38.386Z,1.25
2019-05-09T04:32:43.091Z,0.93
2019-05-09T04:33:47.547Z,0.98
2019-05-09T04:34:52.102Z,1.05
2019-05-09T04:35:57.898Z,0.80
2019-05-09T04:37:02.655Z,1.45
2019-05-09T04:38:07.439Z,0.72
2019-05-09T04:39:21.475Z,1.05
2019-05-09T04:40:21.053Z,0.98
2019-05-09T04:41:25.522Z,1.20
2019-05-09T04:42:29.954Z,1.00
2019-05-09T04:43:37.478Z,0.90
2019-05-09T04:44:49.849Z,1.00
2019-05-09T04:45:58.614Z,1.15
2019-05-09T04:47:03.760Z,1.05
2019-05-09T04:48:13.153Z,1.00
2019-05-09T04:49:18.487Z,1.05
2019-05-09T04:50:24.888Z,0.90
2019-05-09T04:51:28.821Z,1.10
2019-05-09T04:52:33.400Z,0.90
2019-05-09T04:53:39.898Z,1.02
2019-05-09T04:54:43.980Z,1.20
2019-05-09T04:55:48.409Z,1.50
2019-05-09T04:56:53.936Z,1.10
2019-05-09T04:58:00.164Z,1.35
2019-05-09T04:59:04.751Z,1.22
2019-05-09T05:00:10.938Z,1.05
2019-05-09T05:01:31.368Z,1.25
2019-05-09T05:02:42.466Z,1.27
2019-05-09T05:03:48.020Z,1.02
2019-05-09T05:04:52.506Z,1.00
2019-05-09T05:05:58.600Z,1.10
2019-05-09T05:07:03.182Z,1.02
2019-05-09T05:08:07.747Z,1.10
2019-05-09T05:09:12.239Z,1.35
2019-05-09T05:10:18.381Z,1.10
2019-05-09T05:11:22.808Z,1.00
2019-05-09T05:12:27.854Z,1.00
2019-05-09T05:13:32.381Z,1.00
2019-05-09T05:14:38.515Z,1.10
2019-05-09T05:15:43.083Z,1.10
2019-05-09T05:16:52.909Z,1.40
2019-05-09T05:17:53.720Z,0.90
2019-05-09T05:18:58.487Z,1.00
2019-05-09T05:20:08.741Z,0.90
2019-05-09T05:21:13.241Z,0.88
2019-05-09T05:22:47.751Z,0.90
2019-05-09T05:24:18.479Z,1.02
2019-05-09T05:25:22.291Z,2.10
2019-05-09T05:26:27.665Z,1.82
2019-05-09T05:27:32.301Z,1.87
2019-05-09T05:28:38.163Z,1.85
2019-05-09T05:29:42.919Z,1.90
2019-05-09T05:30:47.765Z,1.25
2019-05-09T05:31:52.907Z,1.60
2019-05-09T05:33:18.380Z,1.27
2019-05-09T05:34:33.133Z,1.70
2019-05-09T05:35:43.686Z,1.30
2019-05-09T05:36:48.142Z,1.20
2019-05-09T05:37:52.583Z,1.20
2019-05-09T05:38:58.550Z,1.50
2019-05-09T05:40:03.224Z,1.40
2019-05-09T05:41:08.068Z,1.52
2019-05-09T05:42:12.571Z,1.85
2019-05-09T05:43:17.456Z,2.05
2019-05-09T05:44:22.077Z,1.75
2019-05-09T05:45:28.498Z,1.95
2019-05-09T05:46:58.446Z,2.10
2019-05-09T05:48:08.124Z,2.58
2019-05-09T05:49:12.648Z,2.30
2019-05-09T05:50:17.691Z,1.90
2019-05-09T05:51:22.273Z,1.87
2019-05-09T05:52:27.743Z,2.02
2019-05-09T05:53:32.280Z,1.87
2019-05-09T05:54:37.853Z,1.60
2019-05-09T05:55:42.660Z,1.85
2019-05-09T05:56:47.495Z,1.80
2019-05-09T05:57:52.079Z,1.60
2019-05-09T05:58:58.101Z,1.95
2019-05-09T06:00:02.747Z,1.60
2019-05-09T06:01:08.197Z,1.87
2019-05-09T06:02:12.961Z,1.70
2019-05-09T06:03:17.866Z,1.50
2019-05-09T06:04:22.487Z,1.80
2019-05-09T06:05:27.804Z,1.60
2019-05-09T06:06:33.101Z,1.70
2019-05-09T06:07:37.919Z,1.85
2019-05-09T06:08:42.637Z,1.70
2019-05-09T06:09:48.220Z,1.60
2019-05-09T06:10:52.949Z,1.80
2019-05-09T06:11:57.852Z,1.60
2019-05-09T06:13:02.593Z,1.70
2019-05-09T06:14:11.612Z,1.60
2019-05-09T06:15:13.524Z,1.70
2019-05-09T06:16:22.002Z,1.80
2019-05-09T06:17:24.134Z,2.12
2019-05-09T06:18:28.607Z,1.70
2019-05-09T06:19:33.157Z,1.50
2019-05-09T06:20:38.629Z,1.62
2019-05-09T06:21:43.217Z,1.70
2019-05-09T06:22:47.849Z,1.42
2019-05-09T06:23:52.450Z,1.40
2019-05-09T06:24:58.259Z,1.65
2019-05-09T06:26:02.927Z,1.90
2019-05-09T06:27:10.119Z,1.60
2019-05-09T06:28:13.520Z,2.10
2019-05-09T06:29:18.084Z,1.50
2019-05-09T06:30:29.771Z,2.02
2019-05-09T06:31:34.361Z,1.77
2019-05-09T06:32:38.793Z,1.87
2019-05-09T06:33:46.017Z,1.87
2019-05-09T06:34:49.397Z,1.70
2019-05-09T06:35:53.897Z,1.67
2019-05-09T06:36:58.757Z,1.67
2019-05-09T06:38:04.286Z,1.50
2019-05-09T06:39:10.296Z,1.65
2019-05-09T06:40:21.457Z,1.90
2019-05-09T06:41:28.375Z,1.77
2019-05-09T06:42:32.244Z,2.00
2019-05-09T06:43:39.350Z,2.00
2019-05-09T06:45:12.469Z,1.70
2019-05-09T06:46:37.856Z,2.08
2019-05-09T06:47:44.189Z,1.77
2019-05-09T06:48:48.666Z,1.90
2019-05-09T06:49:57.177Z,1.62
2019-05-09T06:51:01.050Z,2.00
2019-05-09T06:52:05.502Z,2.17
2019-05-09T06:53:09.988Z,1.77
2019-05-09T06:54:14.467Z,1.70
2019-05-09T06:55:19.001Z,1.72
2019-05-09T06:56:23.439Z,2.05
2019-05-09T06:57:28.246Z,2.40
2019-05-09T06:58:33.378Z,2.30
2019-05-09T06:59:38.235Z,2.02
2019-05-09T07:00:53.085Z,2.50
2019-05-09T07:02:08.270Z,2.52
2019-05-09T07:03:18.358Z,2.50
2019-05-09T07:04:27.759Z,2.52
2019-05-09T07:05:49.858Z,3.00
2019-05-09T07:07:02.053Z,2.67
2019-05-09T07:08:13.210Z,2.62
2019-05-09T07:09:24.648Z,2.37
2019-05-09T07:10:29.165Z,2.22
2019-05-09T07:11:33.605Z,2.72
2019-05-09T07:12:38.070Z,2.30
2019-05-09T07:13:42.571Z,2.33
2019-05-09T07:14:48.685Z,2.67
2019-05-09T07:15:53.413Z,2.30
2019-05-09T07:16:58.478Z,2.02
2019-05-09T07:18:03.134Z,2.15
2019-05-09T07:19:08.098Z,2.30
2019-05-09T07:20:12.715Z,2.17
2019-05-09T07:21:18.931Z,2.40
2019-05-09T07:22:33.443Z,2.60
2019-05-09T07:23:37.919Z,2.90
2019-05-09T07:25:18.597Z,2.20
2019-05-09T07:26:28.077Z,2.33
2019-05-09T07:27:32.817Z,2.10
2019-05-09T07:28:37.709Z,2.02
2019-05-09T07:29:42.381Z,2.30
2019-05-09T07:31:11.888Z,2.10
2019-05-09T07:32:18.189Z,2.02
2019-05-09T07:33:42.501Z,2.27
2019-05-09T07:34:50.777Z,2.33
2019-05-09T07:35:55.239Z,2.40
2019-05-09T07:36:59.790Z,2.05
2019-05-09T07:38:04.274Z,2.05
2019-05-09T07:39:09.136Z,2.35
2019-05-09T07:40:13.827Z,2.10
2019-05-09T07:41:18.269Z,1.92
2019-05-09T07:42:22.856Z,2.05
2019-05-09T07:43:28.226Z,2.27
2019-05-09T07:44:45.384Z,2.20
2019-05-09T07:45:40.370Z,2.17
2019-05-09T07:46:58.087Z,2.30
2019-05-09T07:48:02.676Z,2.27
2019-05-09T07:49:10.637Z,2.20
2019-05-09T07:50:15.204Z,2.17
2019-05-09T07:51:19.674Z,2.20
2019-05-09T07:52:24.209Z,2.40
2019-05-09T07:53:28.670Z,2.08
2019-05-09T07:54:33.201Z,2.30
2019-05-09T07:55:38.006Z,2.10
2019-05-09T07:56:42.625Z,2.10
2019-05-09T07:57:54.686Z,2.47
2019-05-09T07:58:53.281Z,2.15
2019-05-09T07:59:58.435Z,2.45
2019-05-09T08:01:03.275Z,2.30
2019-05-09T08:02:08.755Z,2.33
2019-05-09T08:03:13.476Z,2.12
2019-05-09T08:04:18.377Z,2.20
2019-05-09T08:05:28.728Z,2.33
2019-05-09T08:06:33.241Z,2.20
2019-05-09T08:07:38.296Z,2.20
2019-05-09T08:08:43.212Z,2.20
2019-05-09T08:09:48.012Z,2.40
2019-05-09T08:10:52.755Z,2.08
2019-05-09T08:11:58.698Z,2.70
2019-05-09T08:13:03.753Z,2.37
2019-05-09T08:14:10.840Z,2.17
2019-05-09T08:15:17.404Z,2.12
2019-05-09T08:16:21.633Z,2.20
2019-05-09T08:17:28.664Z,2.67
2019-05-09T08:18:32.919Z,2.12
2019-05-09T08:19:38.098Z,2.72
2019-05-09T08:20:42.916Z,2.10
2019-05-09T08:21:47.946Z,2.10
2019-05-09T08:22:58.738Z,2.00
2019-05-09T08:24:00.478Z,2.30
2019-05-09T08:25:05.069Z,2.12
2019-05-09T08:26:09.989Z,2.40
2019-05-09T08:27:14.760Z,2.10
2019-05-09T08:28:20.103Z,2.17
2019-05-09T08:29:24.969Z,1.87
2019-05-09T08:30:35.767Z,2.10
2019-05-09T08:31:39.991Z,2.15
2019-05-09T08:32:43.042Z,1.90
2019-05-09T08:33:48.628Z,2.20
2019-05-09T08:34:53.451Z,2.00
2019-05-09T08:35:58.638Z,2.42
2019-05-09T08:37:03.365Z,1.85
2019-05-09T08:38:08.760Z,2.05
2019-05-09T08:39:13.877Z,1.90
2019-05-09T08:40:21.531Z,1.82
2019-05-09T08:41:25.217Z,1.75
2019-05-09T08:42:30.192Z,2.02
2019-05-09T08:43:37.616Z,1.82
2019-05-09T08:44:42.213Z,2.00
2019-05-09T08:45:48.432Z,1.75
2019-05-09T08:46:53.285Z,1.92
2019-05-09T08:47:58.174Z,2.12
2019-05-09T08:49:02.846Z,1.77
2019-05-09T08:50:18.874Z,1.87
2019-05-09T08:51:38.222Z,1.98
2019-05-09T08:52:40.635Z,1.70
2019-05-09T08:53:48.042Z,2.02
2019-05-09T08:54:54.665Z,1.65
2019-05-09T08:55:59.455Z,1.67
2019-05-09T08:57:04.577Z,1.62
2019-05-09T08:58:09.413Z,2.00
2019-05-09T08:59:14.223Z,2.00
2019-05-09T09:00:19.129Z,2.02
2019-05-09T09:01:43.115Z,1.85
2019-05-09T09:02:30.609Z,2.00
2019-05-09T09:03:35.046Z,2.00
2019-05-09T09:04:39.757Z,1.80
2019-05-09T09:05:44.514Z,2.10
2019-05-09T09:06:49.437Z,1.72
2019-05-09T09:07:54.327Z,1.90
2019-05-09T09:08:59.122Z,1.67
2019-05-09T09:10:03.945Z,2.00
2019-05-09T09:11:08.807Z,1.72
2019-05-09T09:12:25.847Z,1.80
2019-05-09T09:13:20.142Z,2.00
2019-05-09T09:14:25.098Z,2.00
2019-05-09T09:15:55.912Z,1.90
2019-05-09T09:16:37.946Z,2.08
2019-05-09T09:17:43.168Z,2.20
2019-05-09T09:18:48.287Z,1.70
2019-05-09T09:19:52.777Z,1.80
2019-05-09T09:20:58.870Z,1.60
2019-05-09T09:22:03.745Z,2.40
2019-05-09T09:23:09.154Z,1.80
2019-05-09T09:24:14.193Z,2.00
2019-05-09T09:25:18.902Z,1.65
2019-05-09T09:26:23.742Z,1.65
2019-05-09T09:27:28.724Z,1.77
2019-05-09T09:28:33.754Z,2.08
2019-05-09T09:29:38.625Z,1.80
2019-05-09T09:30:43.460Z,1.90
2019-05-09T09:31:48.410Z,2.00
2019-05-09T09:32:53.221Z,1.90
2019-05-09T09:33:58.667Z,1.72
2019-05-09T09:35:03.601Z,1.62
2019-05-09T09:36:08.844Z,2.08
2019-05-09T09:37:13.435Z,1.80
2019-05-09T09:38:18.298Z,1.72
2019-05-09T09:39:22.944Z,1.95
2019-05-09T09:40:28.091Z,1.85
2019-05-09T09:41:32.996Z,1.75
2019-05-09T09:42:39.610Z,1.65
2019-05-09T09:43:44.910Z,1.67
2019-05-09T09:44:51.502Z,2.15
2019-05-09T09:46:09.455Z,1.75
2019-05-09T09:47:02.781Z,1.80
2019-05-09T09:48:08.968Z,1.90
2019-05-09T09:49:14.294Z,1.92
2019-05-09T09:50:19.038Z,1.92
2019-05-09T09:51:23.754Z,1.90
2019-05-09T09:52:29.811Z,1.87
2019-05-09T09:53:35.140Z,1.67
2019-05-09T09:54:39.908Z,2.00
2019-05-09T09:55:44.725Z,2.05
2019-05-09T09:56:50.373Z,1.82
2019-05-09T09:57:57.559Z,1.60
2019-05-09T09:59:20.547Z,1.87
2019-05-09T10:00:54.043Z,2.30
2019-05-09T10:01:58.885Z,1.70
2019-05-09T10:03:03.745Z,1.60
2019-05-09T10:04:19.748Z,1.85
2019-05-09T10:05:18.526Z,1.72
2019-05-09T10:06:23.431Z,1.90
2019-05-09T10:07:28.298Z,1.60
2019-05-09T10:08:33.389Z,1.70
2019-05-09T10:09:38.293Z,1.60
2019-05-09T10:10:43.137Z,1.90
2019-05-09T10:11:48.425Z,2.02
2019-05-09T10:12:53.522Z,1.92
2019-05-09T10:13:58.413Z,1.98
2019-05-09T10:15:13.061Z,2.15
2019-05-09T10:16:29.117Z,2.02
2019-05-09T10:17:38.905Z,2.15
2019-05-09T10:19:08.296Z,1.90
2019-05-09T10:20:23.753Z,1.75
2019-05-09T10:21:31.538Z,1.77
2019-05-09T10:22:44.768Z,2.30
2019-05-09T10:23:42.117Z,1.90
2019-05-09T10:24:47.861Z,2.10
2019-05-09T10:25:52.609Z,2.17
2019-05-09T10:27:10.477Z,2.00
2019-05-09T10:28:14.966Z,2.10
2019-05-09T10:29:19.447Z,2.15
2019-05-09T10:30:31.324Z,2.02
2019-05-09T10:31:35.769Z,1.85
2019-05-09T10:32:40.243Z,2.25
2019-05-09T10:33:44.689Z,2.12
2019-05-09T10:34:49.672Z,1.70
2019-05-09T10:35:54.281Z,1.92
2019-05-09T10:36:58.833Z,2.10
2019-05-09T10:38:03.319Z,1.80
2019-05-09T10:39:08.355Z,1.80
2019-05-09T10:40:16.011Z,2.00
2019-05-09T10:41:20.522Z,2.10
2019-05-09T10:42:48.364Z,1.92
2019-05-09T10:44:14.187Z,2.35
2019-05-09T10:45:57.819Z,1.92
2019-05-09T10:47:10.011Z,1.77
2019-05-09T10:48:14.471Z,2.10
2019-05-09T10:49:18.949Z,2.10
2019-05-09T10:50:23.436Z,1.80
2019-05-09T10:51:28.130Z,2.00
2019-05-09T10:52:32.552Z,2.05
2019-05-09T10:53:37.064Z,1.90
2019-05-09T10:54:41.485Z,1.70
2019-05-09T10:55:48.055Z,1.82
2019-05-09T10:56:52.119Z,1.85
2019-05-09T10:58:01.986Z,2.30
2019-05-09T10:59:02.722Z,1.82
2019-05-09T11:00:08.720Z,2.00
2019-05-09T11:01:13.392Z,1.90
2019-05-09T11:02:17.902Z,2.02
2019-05-09T11:03:22.307Z,1.98
2019-05-09T11:04:28.749Z,1.85
2019-05-09T11:05:32.989Z,1.80
2019-05-09T11:06:38.181Z,1.90
2019-05-09T11:07:43.035Z,2.10
2019-05-09T11:08:47.864Z,1.92
2019-05-09T11:09:52.546Z,2.20
2019-05-09T11:10:58.042Z,2.00
2019-05-09T11:12:02.678Z,1.80
2019-05-09T11:13:07.625Z,1.70
2019-05-09T11:14:27.862Z,1.77
2019-05-09T11:15:18.400Z,1.95
2019-05-09T11:16:22.882Z,2.10
2019-05-09T11:17:28.537Z,2.17
2019-05-09T11:18:33.138Z,1.98
2019-05-09T11:19:37.597Z,1.72
2019-05-09T11:20:42.101Z,2.02
2019-05-09T11:21:47.844Z,1.92
2019-05-09T11:22:52.521Z,2.00
2019-05-09T11:23:58.429Z,1.82
2019-05-09T11:25:03.135Z,2.15
2019-05-09T11:26:07.639Z,2.12
2019-05-09T11:27:12.207Z,2.00
2019-05-09T11:28:17.988Z,2.10
2019-05-09T11:29:22.637Z,1.75
2019-05-09T11:30:28.165Z,2.20
2019-05-09T11:31:32.885Z,1.98
2019-05-09T11:32:38.559Z,2.12
2019-05-09T11:33:43.314Z,1.82
2019-05-09T11:34:48.561Z,1.98
2019-05-09T11:35:53.202Z,1.82
2019-05-09T11:36:58.042Z,1.87
2019-05-09T11:38:02.622Z,2.00
2019-05-09T11:39:10.757Z,1.92
2019-05-09T11:40:15.089Z,2.10
2019-05-09T11:41:19.788Z,2.12
2019-05-09T11:42:24.353Z,1.90
2019-05-09T11:43:29.901Z,1.98
2019-05-09T11:44:34.791Z,2.05
2019-05-09T11:45:39.390Z,1.95
2019-05-09T11:46:43.907Z,1.90
2019-05-09T11:47:48.381Z,2.42
2019-05-09T11:48:52.846Z,1.67
2019-05-09T11:49:57.954Z,2.10
2019-05-09T11:51:03.535Z,1.67
2019-05-09T11:52:08.440Z,1.90
2019-05-09T11:53:12.991Z,2.00
2019-05-09T11:54:19.513Z,1.92
2019-05-09T11:55:34.977Z,1.98
2019-05-09T11:56:31.286Z,2.10
2019-05-09T11:57:38.211Z,2.08
2019-05-09T11:58:42.439Z,2.02
2019-05-09T11:59:47.993Z,1.95
2019-05-09T12:00:52.521Z,2.00
2019-05-09T12:02:11.581Z,2.00
2019-05-09T12:03:16.194Z,1.72
2019-05-09T12:04:20.688Z,1.90
2019-05-09T12:05:25.147Z,2.17
2019-05-09T12:06:29.664Z,1.70
2019-05-09T12:07:34.120Z,1.87
2019-05-09T12:08:38.855Z,2.00
2019-05-09T12:09:43.631Z,2.20
2019-05-09T12:10:48.090Z,2.10
2019-05-09T12:11:52.683Z,1.90
2019-05-09T12:12:57.711Z,1.92
2019-05-09T12:14:02.342Z,1.85
2019-05-09T12:15:08.806Z,2.00
2019-05-09T12:16:13.517Z,2.17
2019-05-09T12:17:19.691Z,1.98
2019-05-09T12:18:24.490Z,2.12
2019-05-09T12:19:29.613Z,2.02
2019-05-09T12:20:34.187Z,2.00
2019-05-09T12:21:46.863Z,2.00
2019-05-09T12:22:44.742Z,1.82
2019-05-09T12:23:49.864Z,1.90
2019-05-09T12:24:54.767Z,1.82
2019-05-09T12:25:59.270Z,1.80
2019-05-09T12:27:03.785Z,2.20
2019-05-09T12:28:08.231Z,2.00
2019-05-09T12:29:12.828Z,1.82
2019-05-09T12:30:18.936Z,1.95
2019-05-09T12:31:23.551Z,2.10
2019-05-09T12:32:28.472Z,2.00
2019-05-09T12:33:33.493Z,2.08
2019-05-09T12:34:38.186Z,2.15
2019-05-09T12:35:42.634Z,1.80
2019-05-09T12:36:49.279Z,2.05
2019-05-09T12:37:53.318Z,2.20
2019-05-09T12:38:59.129Z,2.10
2019-05-09T12:40:04.686Z,1.95
2019-05-09T12:41:09.169Z,1.72
2019-05-09T12:42:13.635Z,1.80
2019-05-09T12:43:18.629Z,1.70
2019-05-09T12:44:25.165Z,2.12
2019-05-09T12:45:29.297Z,2.02
2019-05-09T12:46:33.761Z,2.10
2019-05-09T12:47:39.752Z,2.10
2019-05-09T12:48:44.488Z,2.30
2019-05-09T12:49:48.974Z,2.20
2019-05-09T12:50:53.486Z,1.82
2019-05-09T12:51:58.498Z,2.10
2019-05-09T12:53:03.322Z,2.10
2019-05-09T12:54:08.673Z,2.22
2019-05-09T12:55:13.423Z,2.10
2019-05-09T12:56:18.961Z,2.12
2019-05-09T12:57:23.469Z,2.20
2019-05-09T12:58:28.364Z,2.15
2019-05-09T12:59:45.484Z,2.35
2019-05-09T13:00:39.403Z,1.90
2019-05-09T13:01:43.868Z,2.35
2019-05-09T13:02:48.343Z,2.08
2019-05-09T13:03:52.834Z,2.17
2019-05-09T13:04:57.358Z,1.98
2019-05-09T13:06:01.849Z,2.10
2019-05-09T13:07:09.469Z,2.40
2019-05-09T13:08:14.005Z,2.02
2019-05-09T13:09:18.643Z,2.20
2019-05-09T13:10:23.224Z,2.00
2019-05-09T13:11:28.103Z,2.00
2019-05-09T13:12:32.828Z,2.10
2019-05-09T13:13:40.751Z,2.20
2019-05-09T13:14:43.513Z,2.30
2019-05-09T13:15:58.105Z,2.12
2019-05-09T13:17:19.394Z,2.27
2019-05-09T13:18:25.455Z,2.50
2019-05-09T13:19:39.535Z,1.85
2019-05-09T13:20:44.061Z,2.05
2019-05-09T13:21:48.547Z,2.20
2019-05-09T13:22:53.031Z,2.10
2019-05-09T13:23:58.912Z,1.60
2019-05-09T13:25:03.695Z,2.10
2019-05-09T13:26:08.359Z,2.10
2019-05-09T13:27:12.975Z,2.08
2019-05-09T13:28:17.687Z,2.08
2019-05-09T13:29:22.252Z,2.00
2019-05-09T13:30:28.495Z,1.92
2019-05-09T13:31:34.794Z,2.12
2019-05-09T13:32:39.025Z,1.92
2019-05-09T13:33:43.530Z,1.80
2019-05-09T13:34:48.785Z,2.00
2019-05-09T13:35:53.473Z,2.30
2019-05-09T13:36:59.021Z,2.00
2019-05-09T13:38:03.863Z,2.10
2019-05-09T13:39:10.385Z,2.27
2019-05-09T13:40:15.205Z,2.02
2019-05-09T13:41:19.958Z,2.10
2019-05-09T13:42:24.453Z,2.00
2019-05-09T13:43:28.924Z,2.37
2019-05-09T13:44:33.674Z,2.30
2019-05-09T13:45:38.183Z,2.35
2019-05-09T13:46:42.672Z,1.80
2019-05-09T13:47:48.513Z,1.80
2019-05-09T13:49:08.214Z,2.15
2019-05-09T13:50:00.538Z,1.98
2019-05-09T13:51:05.035Z,2.00
2019-05-09T13:52:10.128Z,2.25
2019-05-09T13:53:15.066Z,2.00
2019-05-09T13:54:19.593Z,2.05
2019-05-09T13:55:24.110Z,2.12
2019-05-09T13:56:28.555Z,2.10
2019-05-09T13:57:33.033Z,2.00
2019-05-09T13:58:38.495Z,2.10
2019-05-09T13:59:43.079Z,2.30
2019-05-09T14:00:58.393Z,1.80
2019-05-09T14:01:53.667Z,2.20
2019-05-09T14:02:58.260Z,2.25
2019-05-09T14:04:02.886Z,2.17
2019-05-09T14:05:08.987Z,1.90
2019-05-09T14:06:13.782Z,2.20
2019-05-09T14:07:19.299Z,2.22
2019-05-09T14:08:24.136Z,2.02
2019-05-09T14:09:29.403Z,2.20
2019-05-09T14:10:34.147Z,2.00
2019-05-09T14:11:38.693Z,2.10
2019-05-09T14:12:43.191Z,2.00
2019-05-09T14:13:48.809Z,2.12
2019-05-09T14:14:53.633Z,1.98
2019-05-09T14:15:58.205Z,2.00
2019-05-09T14:17:02.761Z,2.00
2019-05-09T14:18:08.281Z,2.27
2019-05-09T14:19:29.165Z,1.98
2019-05-09T14:20:19.452Z,2.10
2019-05-09T14:21:24.663Z,2.05
2019-05-09T14:22:29.398Z,1.90
2019-05-09T14:23:36.789Z,2.10
2019-05-09T14:24:40.188Z,2.50
2019-05-09T14:25:49.294Z,2.52
2019-05-09T14:26:50.739Z,2.33
2019-05-09T14:27:55.216Z,2.37
2019-05-09T14:28:59.697Z,2.30
2019-05-09T14:30:04.479Z,2.20
2019-05-09T14:31:08.947Z,2.30
2019-05-09T14:32:13.431Z,2.08
2019-05-09T14:33:18.192Z,2.00
2019-05-09T14:34:22.654Z,2.30
2019-05-09T14:35:27.727Z,2.17
2019-05-09T14:36:32.337Z,2.00
2019-05-09T14:37:38.840Z,1.87
2019-05-09T14:38:42.992Z,2.20
2019-05-09T14:39:55.948Z,1.80
2019-05-09T14:40:53.704Z,1.75
2019-05-09T14:41:58.290Z,2.50
2019-05-09T14:43:02.716Z,1.70
2019-05-09T14:44:09.437Z,2.10
2019-05-09T14:45:15.005Z,2.00
2019-05-09T14:46:19.575Z,1.90